Time;durP1;ratioP1;P1;durP2;ratioP2;P2;SDS_P1;SDS_P2;PMS_P1;PMS_P2;Temp;Humidity;BMP_temperature;BMP_pressure;BME280_temperature;BME280_humidity;BME280_pressure;Samples;Min_cycle;Max_cycle;Signal;HPM_P1;HPM_P2
2020/12/13 00:01:42;;;;;;;10.02;8.32;;;6.10;99.90;;;;;;5033306;28;20369;-68
2020/12/13 00:04:08;;;;;;;9.00;7.97;;;6.10;99.90;;;;;;5032579;28;20025;-67
2020/12/13 00:06:34;;;;;;;9.95;8.05;;;6.10;99.90;;;;;;5033274;28;20551;-69
2020/12/13 00:09:05;;;;;;;8.27;7.47;;;6.10;99.90;;;;;;5033613;28;20498;-67
2020/12/13 00:11:35;;;;;;;9.77;7.55;;;6.10;99.90;;;;;;5033176;28;20039;-68
2020/12/13 00:14:01;;;;;;;11.25;8.75;;;6.10;99.90;;;;;;5032704;28;20025;-68
2020/12/13 00:16:26;;;;;;;8.73;7.55;;;6.10;99.90;;;;;;5033115;28;20539;-68
2020/12/13 00:18:52;;;;;;;11.98;8.63;;;6.20;99.90;;;;;;5032959;28;20022;-68
2020/12/13 00:21:18;;;;;;;11.10;7.78;;;6.20;99.90;;;;;;5048466;28;20029;-67
2020/12/13 00:23:43;;;;;;;9.93;8.50;;;6.20;99.90;;;;;;5032091;28;20025;-70
2020/12/13 00:26:10;;;;;;;8.55;7.68;;;6.20;99.90;;;;;;5032956;28;20092;-67
2020/12/13 00:28:36;;;;;;;8.43;7.25;;;6.20;99.90;;;;;;5015034;28;20030;-67
2020/12/13 00:31:04;;;;;;;10.35;7.80;;;6.30;99.90;;;;;;5032688;28;20024;-67
2020/12/13 00:33:29;;;;;;;8.52;7.05;;;6.30;99.90;;;;;;5013915;28;20079;-67
2020/12/13 00:35:55;;;;;;;10.45;7.88;;;6.30;99.90;;;;;;5032780;28;20029;-67
2020/12/13 00:38:21;;;;;;;7.95;7.05;;;6.20;99.90;;;;;;5032657;28;20036;-68
2020/12/13 00:40:51;;;;;;;10.88;8.05;;;6.20;99.90;;;;;;5032299;28;20117;-69
2020/12/13 00:43:17;;;;;;;8.32;7.30;;;6.20;99.90;;;;;;5031590;28;20021;-68
2020/12/13 00:45:43;;;;;;;9.05;7.63;;;6.20;99.90;;;;;;5032303;28;20037;-69
2020/12/13 00:48:09;;;;;;;8.45;7.40;;;6.20;99.90;;;;;;5059576;22;20048;-71
2020/12/13 00:50:39;;;;;;;12.18;8.50;;;6.20;99.90;;;;;;5046270;28;20025;-71
2020/12/13 00:53:06;;;;;;;9.23;7.90;;;6.30;99.90;;;;;;5051274;28;20021;-71
2020/12/13 00:55:31;;;;;;;11.57;8.90;;;6.30;99.90;;;;;;5053630;28;20025;-71
2020/12/13 00:57:57;;;;;;;9.40;7.70;;;6.40;99.90;;;;;;5038803;28;20041;-72
2020/12/13 01:00:23;;;;;;;8.40;7.20;;;6.30;99.90;;;;;;5033682;28;20633;-71
2020/12/13 01:02:49;;;;;;;8.98;7.72;;;6.30;99.90;;;;;;5031893;28;20037;-71
2020/12/13 01:05:15;;;;;;;10.18;8.57;;;6.30;99.90;;;;;;5032744;28;20029;-72
2020/12/13 01:07:42;;;;;;;12.60;8.20;;;6.30;99.90;;;;;;5032746;28;20096;-69
2020/12/13 01:10:08;;;;;;;11.88;8.70;;;6.20;99.90;;;;;;5032267;28;20534;-69
2020/12/13 01:12:34;;;;;;;9.48;8.15;;;6.20;99.90;;;;;;5032628;28;20064;-72
2020/12/13 01:15:00;;;;;;;9.73;8.05;;;6.30;99.90;;;;;;5031753;28;20079;-71
2020/12/13 01:17:25;;;;;;;10.13;8.18;;;6.30;99.90;;;;;;5031926;28;20021;-71
2020/12/13 01:19:51;;;;;;;10.00;7.85;;;6.30;99.90;;;;;;5032744;28;20044;-69
2020/12/13 01:22:17;;;;;;;8.90;7.88;;;6.40;99.90;;;;;;5033940;28;20025;-70
2020/12/13 01:24:42;;;;;;;9.48;7.93;;;6.40;99.90;;;;;;5031243;28;20090;-70
2020/12/13 01:27:08;;;;;;;11.88;8.50;;;6.40;99.90;;;;;;5031931;28;20033;-71
2020/12/13 01:29:34;;;;;;;9.02;8.13;;;6.40;99.90;;;;;;5032013;28;20036;-70
2020/12/13 01:31:59;;;;;;;8.80;7.90;;;6.40;99.90;;;;;;5031852;28;20053;-72
2020/12/13 01:34:25;;;;;;;8.40;7.47;;;6.40;99.90;;;;;;5030502;28;20097;-69
2020/12/13 01:36:51;;;;;;;8.95;8.05;;;6.40;99.90;;;;;;5031621;28;20108;-70
2020/12/13 01:39:16;;;;;;;8.45;7.57;;;6.40;99.90;;;;;;5031761;28;20087;-71
2020/12/13 01:41:42;;;;;;;9.32;7.93;;;6.40;99.90;;;;;;5031682;28;20021;-71
2020/12/13 01:44:07;;;;;;;8.27;7.43;;;6.40;99.90;;;;;;5031093;28;20364;-71
2020/12/13 01:46:34;;;;;;;8.00;7.20;;;6.40;99.90;;;;;;5031246;28;20399;-71
2020/12/13 01:49:09;;;;;;;9.80;8.00;;;6.40;99.90;;;;;;5031750;28;20033;-71
2020/12/13 01:54:13;;;;;;;8.55;7.00;;;6.30;99.90;;;;;;5030876;28;20087;-70
2020/12/13 01:57:00;;;;;;;11.25;7.90;;;6.30;99.90;;;;;;5031668;28;20045;-71
2020/12/13 01:59:29;;;;;;;15.55;8.25;;;6.20;99.90;;;;;;5031603;28;20031;-72
2020/12/13 02:02:01;;;;;;;10.10;8.25;;;6.20;99.90;;;;;;5031234;28;20045;-71
2020/12/13 02:04:28;;;;;;;10.80;8.40;;;6.10;99.90;;;;;;5030578;28;20075;-71
2020/12/13 02:06:55;;;;;;;10.32;9.15;;;6.20;99.90;;;;;;5034569;28;20089;-71
2020/12/13 02:09:22;;;;;;;10.15;8.38;;;6.20;99.90;;;;;;5031324;28;20052;-71
2020/12/13 02:11:49;;;;;;;8.70;7.50;;;6.20;99.90;;;;;;5031460;28;20021;-71
2020/12/13 02:14:15;;;;;;;7.63;6.82;;;6.20;99.90;;;;;;5031103;28;20030;-71
2020/12/13 02:16:53;;;;;;;9.88;8.18;;;6.20;99.90;;;;;;5030766;28;20068;-69
2020/12/13 02:19:19;;;;;;;9.93;8.05;;;6.20;99.90;;;;;;5031348;28;20022;-71
2020/12/13 02:21:47;;;;;;;10.80;8.02;;;6.20;99.90;;;;;;5031410;28;20032;-71
2020/12/13 02:24:13;;;;;;;11.88;8.13;;;6.20;99.90;;;;;;5030550;28;20414;-70
2020/12/13 02:26:40;;;;;;;7.97;6.97;;;6.10;99.90;;;;;;5031236;28;20100;-70
2020/12/13 02:29:06;;;;;;;8.88;7.97;;;6.10;99.90;;;;;;5031275;28;20022;-71
2020/12/13 02:31:32;;;;;;;8.52;7.63;;;6.10;99.90;;;;;;5031097;28;20448;-71
2020/12/13 02:33:58;;;;;;;10.35;7.50;;;6.00;99.90;;;;;;5030172;28;20025;-71
2020/12/13 02:36:23;;;;;;;9.82;8.38;;;6.00;99.90;;;;;;5031185;28;20034;-71
2020/12/13 02:38:49;;;;;;;10.25;8.30;;;5.90;99.90;;;;;;5031158;28;20046;-71
2020/12/13 02:41:15;;;;;;;10.43;7.95;;;5.90;99.90;;;;;;5036911;28;20025;-70
2020/12/13 02:43:40;;;;;;;9.57;8.13;;;5.90;99.90;;;;;;5031509;28;20030;-71
2020/12/13 02:46:06;;;;;;;11.40;8.70;;;5.90;99.90;;;;;;5032630;28;20057;-71
2020/12/13 02:48:31;;;;;;;7.90;6.97;;;6.00;99.90;;;;;;5034614;28;20044;-71
2020/12/13 02:50:57;;;;;;;11.30;7.97;;;6.00;99.90;;;;;;5034973;28;20529;-71
2020/12/13 02:53:23;;;;;;;9.57;7.63;;;6.00;99.90;;;;;;5034067;28;20033;-71
2020/12/13 02:55:48;;;;;;;9.27;7.53;;;6.10;99.90;;;;;;5033633;28;20045;-71
2020/12/13 02:58:14;;;;;;;9.48;7.38;;;6.10;99.90;;;;;;5034987;28;20105;-72
2020/12/13 03:00:40;;;;;;;8.80;7.03;;;6.10;99.90;;;;;;5034848;28;20019;-71
2020/12/13 03:03:05;;;;;;;8.48;7.32;;;6.10;99.90;;;;;;5034042;28;20025;-70
2020/12/13 03:05:31;;;;;;;10.35;7.65;;;6.10;99.90;;;;;;5034935;28;20029;-70
2020/12/13 03:07:58;;;;;;;9.48;7.13;;;6.10;99.90;;;;;;5035055;28;20029;-70
2020/12/13 03:10:23;;;;;;;8.23;6.78;;;6.10;99.90;;;;;;5035282;28;20104;-71
2020/12/13 03:12:49;;;;;;;8.68;6.70;;;6.10;99.90;;;;;;5034744;28;20069;-70
2020/12/13 03:15:15;;;;;;;7.43;6.60;;;6.20;99.90;;;;;;5035200;28;20021;-70
2020/12/13 03:17:41;;;;;;;7.32;6.28;;;6.20;99.90;;;;;;5033801;28;20116;-70
2020/12/13 03:20:07;;;;;;;7.10;6.32;;;6.20;99.90;;;;;;5034457;28;20045;-70
2020/12/13 03:22:32;;;;;;;7.30;6.40;;;6.20;99.90;;;;;;5034180;28;20092;-70
2020/12/13 03:24:58;;;;;;;6.80;6.10;;;6.20;99.90;;;;;;5033682;28;20146;-70
2020/12/13 03:27:25;;;;;;;6.53;5.88;;;6.20;99.90;;;;;;5031219;28;20391;-70
2020/12/13 03:29:51;;;;;;;9.20;7.22;;;6.30;99.90;;;;;;5033890;28;20018;-72
2020/12/13 03:32:17;;;;;;;7.88;6.97;;;6.20;99.90;;;;;;5034233;28;20056;-72
2020/12/13 03:34:42;;;;;;;9.02;6.90;;;6.20;99.90;;;;;;5035279;28;20431;-71
2020/12/13 03:37:08;;;;;;;8.27;6.93;;;6.10;99.90;;;;;;5034947;28;20041;-70
2020/12/13 03:39:34;;;;;;;7.65;6.78;;;6.20;99.90;;;;;;5033898;28;20169;-72
2020/12/13 03:41:59;;;;;;;8.52;7.20;;;6.10;99.90;;;;;;5033879;28;20108;-72
2020/12/13 03:44:25;;;;;;;8.77;7.13;;;6.20;99.90;;;;;;5032929;28;20057;-71
2020/12/13 03:46:51;;;;;;;7.35;5.97;;;6.10;99.90;;;;;;5033513;28;20793;-71
2020/12/13 03:49:16;;;;;;;8.07;6.93;;;6.10;99.90;;;;;;5033888;28;20097;-71
2020/12/13 03:51:42;;;;;;;7.80;6.20;;;6.10;99.90;;;;;;5034411;28;20610;-70
2020/12/13 03:54:08;;;;;;;6.75;5.93;;;6.10;99.90;;;;;;5032819;28;20542;-69
2020/12/13 03:56:33;;;;;;;9.68;7.18;;;6.20;99.90;;;;;;5033776;28;20099;-70
2020/12/13 03:58:59;;;;;;;6.90;6.20;;;6.10;99.90;;;;;;5033269;28;20033;-72
2020/12/13 04:01:25;;;;;;;5.70;5.00;;;6.20;99.90;;;;;;5033647;28;20079;-71
2020/12/13 04:03:51;;;;;;;6.68;5.60;;;6.20;99.90;;;;;;5032378;28;20032;-70
2020/12/13 04:06:16;;;;;;;4.90;4.50;;;6.20;99.90;;;;;;5033285;28;20036;-70
2020/12/13 04:08:42;;;;;;;6.95;4.63;;;6.30;99.90;;;;;;5033381;28;20033;-71
2020/12/13 04:11:08;;;;;;;4.93;4.00;;;6.30;99.90;;;;;;5033386;28;20033;-70
2020/12/13 04:13:33;;;;;;;4.47;4.07;;;6.30;99.90;;;;;;5032699;28;20068;-69
2020/12/13 04:15:59;;;;;;;5.03;4.30;;;6.40;99.90;;;;;;5033534;28;20033;-69
2020/12/13 04:18:25;;;;;;;4.80;4.30;;;6.40;99.90;;;;;;5032975;28;20538;-72
2020/12/13 04:20:50;;;;;;;4.35;3.90;;;6.40;99.90;;;;;;5033290;28;20499;-70
2020/12/13 04:23:16;;;;;;;3.92;3.63;;;6.40;99.90;;;;;;5032753;28;20022;-70
2020/12/13 04:25:41;;;;;;;4.60;3.95;;;6.50;99.90;;;;;;5033301;28;20033;-70
2020/12/13 04:28:07;;;;;;;3.97;3.45;;;6.40;99.90;;;;;;5033102;28;20049;-71
2020/12/13 04:30:33;;;;;;;5.13;3.60;;;6.40;99.90;;;;;;5033439;28;20021;-70
2020/12/13 04:32:58;;;;;;;4.50;3.42;;;6.40;99.90;;;;;;5032053;28;20091;-70
2020/12/13 04:35:24;;;;;;;4.53;4.13;;;6.40;99.90;;;;;;5033240;28;20371;-70
2020/12/13 04:37:50;;;;;;;4.18;3.78;;;6.50;99.90;;;;;;5032901;28;20022;-71
2020/12/13 04:40:15;;;;;;;4.55;3.88;;;6.40;99.90;;;;;;5032687;28;20057;-70
2020/12/13 04:42:41;;;;;;;4.07;3.67;;;6.40;99.90;;;;;;5031958;28;20036;-73
2020/12/13 04:45:09;;;;;;;4.15;3.75;;;6.40;99.90;;;;;;5032596;28;20100;-71
2020/12/13 04:47:44;;;;;;;3.67;3.35;;;6.40;99.90;;;;;;5032271;28;20033;-70
2020/12/13 04:50:10;;;;;;;3.75;3.40;;;6.40;99.90;;;;;;5032531;28;20513;-72
2020/12/13 04:52:37;;;;;;;5.05;4.00;;;6.40;99.90;;;;;;5032374;28;20061;-70
2020/12/13 04:55:03;;;;;;;5.00;4.35;;;6.40;99.90;;;;;;5032338;28;20025;-71
2020/12/13 04:57:29;;;;;;;6.78;5.15;;;6.30;99.90;;;;;;5032312;28;20036;-71
2020/12/13 04:59:58;;;;;;;5.15;4.65;;;6.30;99.90;;;;;;5032496;28;20106;-71
2020/12/13 05:02:24;;;;;;;4.05;3.65;;;6.20;99.90;;;;;;5032126;28;20024;-72
2020/12/13 05:04:50;;;;;;;4.70;4.18;;;6.20;99.90;;;;;;5031434;28;20025;-71
2020/12/13 05:07:19;;;;;;;4.90;4.22;;;6.20;99.90;;;;;;5032184;28;20071;-72
2020/12/13 05:09:52;;;;;;;4.65;4.25;;;6.20;99.90;;;;;;5031417;28;20100;-72
2020/12/13 05:12:23;;;;;;;4.55;4.15;;;6.10;99.90;;;;;;5032077;28;20083;-71
2020/12/13 05:14:49;;;;;;;8.38;4.57;;;6.10;99.90;;;;;;5030762;28;20426;-71
2020/12/13 05:17:15;;;;;;;4.40;4.00;;;6.10;99.90;;;;;;5031735;28;20029;-70
2020/12/13 05:19:43;;;;;;;4.55;4.13;;;6.10;99.90;;;;;;5032178;28;20036;-70
2020/12/13 05:22:10;;;;;;;5.50;4.93;;;6.00;99.90;;;;;;5032176;28;20474;-71
2020/12/13 05:24:36;;;;;;;4.88;4.47;;;6.10;99.90;;;;;;5031175;28;20052;-71
2020/12/13 05:27:06;;;;;;;5.18;4.68;;;6.10;99.90;;;;;;5031984;28;20022;-71
2020/12/13 05:29:35;;;;;;;4.97;4.20;;;6.10;99.90;;;;;;5031968;28;20022;-71
2020/12/13 05:32:19;;;;;;;5.30;4.75;;;6.10;99.90;;;;;;5031940;28;20017;-71
2020/12/13 05:34:47;;;;;;;6.07;4.53;;;6.10;99.90;;;;;;5031157;28;20036;-72
2020/12/13 05:37:17;;;;;;;8.48;5.50;;;6.10;99.90;;;;;;5031804;28;20025;-71
2020/12/13 05:39:44;;;;;;;4.97;4.40;;;6.10;99.90;;;;;;5030643;28;20025;-71
2020/12/13 05:42:12;;;;;;;5.80;5.07;;;6.00;99.90;;;;;;5031725;28;20029;-71
2020/12/13 05:52:50;;;;;;;5.90;4.93;;;6.10;99.90;;;;;;5030962;28;20048;-72
2020/12/13 05:55:17;;;;;;;5.05;4.57;;;6.00;99.90;;;;;;5031586;28;20092;-71
2020/12/13 05:57:43;;;;;;;5.07;4.60;;;6.00;99.90;;;;;;5031582;28;20025;-71
2020/12/13 06:00:09;;;;;;;5.57;4.30;;;6.10;99.90;;;;;;5032024;28;20026;-71
2020/12/13 06:02:36;;;;;;;4.90;4.45;;;6.10;99.90;;;;;;5031926;28;20024;-71
2020/12/13 06:05:04;;;;;;;4.90;4.40;;;6.10;99.90;;;;;;5030654;28;20037;-71
2020/12/13 06:07:46;;;;;;;4.53;4.10;;;6.10;99.90;;;;;;5031691;28;20087;-71
2020/12/13 06:10:25;;;;;;;4.38;3.92;;;6.10;99.90;;;;;;5031467;28;20021;-71
2020/12/13 06:13:03;;;;;;;4.20;3.20;;;6.20;99.90;;;;;;5030900;28;20601;-71
2020/12/13 06:15:31;;;;;;;2.83;2.55;;;6.20;99.90;;;;;;5031608;28;20022;-72
2020/12/13 06:17:58;;;;;;;3.08;2.78;;;6.30;99.90;;;;;;5029822;28;20061;-72
2020/12/13 06:20:24;;;;;;;2.65;2.45;;;6.30;99.90;;;;;;5030226;28;20106;-73
2020/12/13 06:22:51;;;;;;;3.15;2.85;;;6.40;99.90;;;;;;5022922;28;20108;-72
2020/12/13 06:25:19;;;;;;;3.00;2.80;;;6.40;99.90;;;;;;5015612;28;20076;-71
2020/12/13 06:27:47;;;;;;;3.35;2.90;;;6.40;99.90;;;;;;5013648;28;20109;-72
2020/12/13 06:30:12;;;;;;;3.63;2.70;;;6.50;99.90;;;;;;5015250;28;20057;-72
2020/12/13 06:32:43;;;;;;;3.03;2.83;;;6.40;99.90;;;;;;5013152;28;20088;-69
2020/12/13 06:35:09;;;;;;;3.13;2.85;;;6.40;99.90;;;;;;5015195;28;20171;-72
2020/12/13 06:37:37;;;;;;;3.70;3.33;;;6.40;99.90;;;;;;5015214;28;20579;-72
2020/12/13 06:40:07;;;;;;;4.93;3.65;;;6.40;99.90;;;;;;5022237;28;20057;-72
2020/12/13 06:42:42;;;;;;;3.45;3.15;;;6.40;99.90;;;;;;5034533;28;20076;-72
2020/12/13 06:45:10;;;;;;;3.03;2.80;;;6.40;99.90;;;;;;5034733;28;20056;-71
2020/12/13 06:47:40;;;;;;;2.67;2.47;;;6.40;99.90;;;;;;5034389;28;20026;-70
2020/12/13 06:50:10;;;;;;;3.33;2.72;;;6.40;99.90;;;;;;5034693;28;20090;-70
2020/12/13 06:52:37;;;;;;;4.22;3.00;;;6.40;99.90;;;;;;5034419;28;20428;-71
2020/12/13 06:55:05;;;;;;;3.13;2.83;;;6.40;99.90;;;;;;5033448;28;20021;-71
2020/12/13 06:57:33;;;;;;;3.33;3.03;;;6.40;99.90;;;;;;5034545;28;20025;-71
2020/12/13 07:00:04;;;;;;;2.60;2.40;;;6.40;99.90;;;;;;5034684;28;20029;-71
2020/12/13 07:02:59;;;;;;;2.78;2.58;;;6.50;99.90;;;;;;5033710;28;20450;-71
2020/12/13 07:05:54;;;;;;;3.03;2.72;;;6.40;99.90;;;;;;5033010;28;20075;-70
2020/12/13 07:08:22;;;;;;;3.15;2.95;;;6.50;99.90;;;;;;5034336;28;20064;-71
2020/12/13 07:10:51;;;;;;;2.53;2.33;;;6.40;99.90;;;;;;5034349;28;20021;-70
2020/12/13 07:13:21;;;;;;;2.50;2.25;;;6.40;99.90;;;;;;5033281;28;20029;-70
2020/12/13 07:15:53;;;;;;;2.92;2.65;;;6.40;99.90;;;;;;5033891;28;20068;-71
2020/12/13 07:18:21;;;;;;;3.40;3.10;;;6.50;99.90;;;;;;5034014;28;20022;-72
2020/12/13 07:20:47;;;;;;;3.63;3.33;;;6.40;99.90;;;;;;5034844;28;20071;-71
2020/12/13 07:23:13;;;;;;;3.33;3.03;;;6.50;99.90;;;;;;5033925;28;20475;-72
2020/12/13 07:25:38;;;;;;;3.70;3.40;;;6.60;99.90;;;;;;5033468;28;20030;-72
2020/12/13 07:28:06;;;;;;;4.15;3.75;;;6.50;99.90;;;;;;5034564;28;20116;-71
2020/12/13 07:30:36;;;;;;;3.55;3.25;;;6.50;99.90;;;;;;5028314;28;20018;-78
2020/12/13 07:33:02;;;;;;;3.78;3.47;;;6.60;99.90;;;;;;5027469;28;20017;-81
2020/12/13 07:35:28;;;;;;;3.83;3.20;;;6.60;99.90;;;;;;5033986;28;20025;-76
2020/12/13 07:37:54;;;;;;;3.65;3.35;;;6.60;99.90;;;;;;5026373;28;20076;-76
2020/12/13 07:40:20;;;;;;;4.18;3.78;;;6.60;99.90;;;;;;5020790;28;20025;-76
2020/12/13 07:43:02;;;;;;;5.38;3.83;;;6.60;99.90;;;;;;5022825;28;20161;-77
2020/12/13 07:45:28;;;;;;;4.15;3.75;;;6.60;99.90;;;;;;5023766;28;20042;-76
2020/12/13 07:48:04;;;;;;;3.85;3.53;;;6.50;99.90;;;;;;5025985;28;20401;-76
2020/12/13 07:50:34;;;;;;;4.50;4.10;;;6.50;99.90;;;;;;5025510;28;20034;-77
2020/12/13 07:53:01;;;;;;;4.30;3.90;;;6.60;99.90;;;;;;5014475;28;20026;-72
2020/12/13 07:55:26;;;;;;;5.47;4.13;;;6.70;99.90;;;;;;5014651;28;20054;-72
2020/12/13 07:57:52;;;;;;;4.55;4.07;;;7.50;99.90;;;;;;5014719;28;20026;-73
2020/12/13 08:00:18;;;;;;;5.28;3.83;;;7.60;99.90;;;;;;5014578;28;20018;-72
2020/12/13 08:02:43;;;;;;;3.45;3.15;;;7.50;99.90;;;;;;5013309;28;20105;-72
2020/12/13 08:05:11;;;;;;;3.67;3.17;;;7.50;99.90;;;;;;5014846;28;20034;-72
2020/12/13 08:07:36;;;;;;;4.43;3.55;;;7.40;99.90;;;;;;5014790;28;20025;-71
2020/12/13 08:10:03;;;;;;;4.15;3.72;;;7.40;99.90;;;;;;5015443;28;20369;-72
2020/12/13 08:12:37;;;;;;;3.13;2.92;;;7.40;99.90;;;;;;5014616;28;20026;-71
2020/12/13 08:15:03;;;;;;;4.28;3.67;;;7.40;99.90;;;;;;5030797;28;20376;-70
2020/12/13 08:17:29;;;;;;;5.60;3.72;;;7.40;99.90;;;;;;5032807;28;20029;-70
2020/12/13 08:20:00;;;;;;;3.55;3.25;;;7.50;99.90;;;;;;5034002;28;20108;-68
2020/12/13 08:22:28;;;;;;;4.00;3.20;;;7.50;99.90;;;;;;5034609;28;20022;-72
2020/12/13 08:25:00;;;;;;;4.00;3.60;;;7.60;99.90;;;;;;5015446;28;20026;-73
2020/12/13 08:27:30;;;;;;;4.38;3.97;;;7.60;99.90;;;;;;5015097;28;20037;-71
2020/12/13 08:29:57;;;;;;;3.88;3.47;;;7.60;99.90;;;;;;5013576;28;20071;-71
2020/12/13 08:32:28;;;;;;;4.35;3.65;;;7.60;99.90;;;;;;5013444;28;20026;-70
2020/12/13 08:34:54;;;;;;;9.25;4.40;;;7.60;99.90;;;;;;5012729;28;20022;-73
2020/12/13 08:37:24;;;;;;;4.22;3.88;;;7.50;99.90;;;;;;5013771;28;20152;-75
2020/12/13 08:39:49;;;;;;;4.55;3.97;;;7.50;99.90;;;;;;5014242;28;20492;-73
2020/12/13 08:42:22;;;;;;;7.38;5.07;;;7.50;99.90;;;;;;5013118;28;20041;-74
2020/12/13 08:44:48;;;;;;;6.93;4.57;;;7.60;99.90;;;;;;5031569;28;20025;-69
2020/12/13 08:47:18;;;;;;;6.90;4.93;;;7.60;99.90;;;;;;5032400;28;20040;-73
2020/12/13 08:49:48;;;;;;;7.45;4.88;;;7.80;99.90;;;;;;5032385;28;20026;-71
2020/12/13 08:52:17;;;;;;;8.52;4.57;;;8.10;99.90;;;;;;5033092;28;20017;-72
2020/12/13 08:54:45;;;;;;;6.43;4.28;;;8.20;99.90;;;;;;5031650;28;20022;-72
2020/12/13 08:57:10;;;;;;;5.60;4.45;;;8.20;99.90;;;;;;5034196;28;20026;-71
2020/12/13 08:59:36;;;;;;;4.53;3.92;;;8.30;99.90;;;;;;5034775;28;20033;-73
2020/12/13 09:02:03;;;;;;;3.70;3.20;;;8.40;99.90;;;;;;5035438;28;20029;-71
2020/12/13 09:04:30;;;;;;;4.25;3.70;;;8.60;99.90;;;;;;5070339;22;20052;-69
2020/12/13 09:06:59;;;;;;;4.35;3.55;;;8.80;99.90;;;;;;5063866;28;20116;-69
2020/12/13 09:09:30;;;;;;;5.30;3.60;;;9.40;99.90;;;;;;5071749;28;20016;-69
2020/12/13 09:11:56;;;;;;;4.85;3.63;;;10.10;99.90;;;;;;5071798;28;20032;-69
2020/12/13 09:14:26;;;;;;;4.25;3.90;;;10.60;99.90;;;;;;5070454;28;20020;-69
2020/12/13 09:16:52;;;;;;;4.00;3.17;;;10.70;99.90;;;;;;5062403;28;20104;-69
2020/12/13 09:19:18;;;;;;;3.08;2.78;;;10.20;99.90;;;;;;5051545;28;20064;-69
2020/12/13 09:21:44;;;;;;;5.05;3.90;;;10.00;99.90;;;;;;5051443;28;20092;-70
2020/12/13 09:24:10;;;;;;;5.03;3.90;;;9.70;99.90;;;;;;5050506;28;20025;-67
2020/12/13 09:26:36;;;;;;;3.20;3.00;;;9.40;99.90;;;;;;5050165;28;20029;-70
2020/12/13 09:29:02;;;;;;;4.65;3.20;;;9.20;99.90;;;;;;5051449;28;20433;-69
2020/12/13 09:31:27;;;;;;;4.45;3.42;;;9.00;99.90;;;;;;5046827;28;20367;-68
2020/12/13 09:33:53;;;;;;;3.75;3.35;;;9.20;99.90;;;;;;5029386;28;20017;-69
2020/12/13 09:36:19;;;;;;;2.75;2.53;;;9.90;99.90;;;;;;5033027;28;20029;-70
2020/12/13 09:38:45;;;;;;;2.88;2.47;;;11.00;99.90;;;;;;5034223;28;20030;-70
2020/12/13 09:41:20;;;;;;;3.22;2.22;;;11.20;99.90;;;;;;5033778;28;20025;-70
2020/12/13 09:43:47;;;;;;;3.60;2.90;;;11.00;99.90;;;;;;5034483;28;20056;-70
2020/12/13 09:46:17;;;;;;;2.85;2.65;;;10.70;99.90;;;;;;5035078;28;20463;-70
2020/12/13 09:48:42;;;;;;;3.97;2.45;;;10.50;99.90;;;;;;5034718;28;20124;-70
2020/12/13 09:51:08;;;;;;;2.63;2.42;;;10.20;99.90;;;;;;5038000;28;20028;-69
2020/12/13 09:53:33;;;;;;;4.20;2.28;;;10.10;99.90;;;;;;5039475;28;20041;-70
2020/12/13 09:55:59;;;;;;;2.20;2.00;;;9.70;99.90;;;;;;5031170;28;20048;-69
2020/12/13 09:58:25;;;;;;;2.30;2.10;;;9.60;99.90;;;;;;5031112;28;20471;-69
2020/12/13 10:00:50;;;;;;;2.40;2.20;;;9.40;99.90;;;;;;5031171;28;20060;-69
2020/12/13 10:03:16;;;;;;;2.40;2.20;;;9.20;99.90;;;;;;5030358;28;20025;-69
2020/12/13 10:11:12;;;;;;;2.10;1.90;;;9.10;99.90;;;;;;5031070;28;20032;-69
2020/12/13 10:13:37;;;;;;;3.95;1.90;;;9.00;99.90;;;;;;5030098;28;20022;-69
2020/12/13 10:16:03;;;;;;;2.20;1.70;;;9.00;99.90;;;;;;5033161;28;20739;-69
2020/12/13 10:18:29;;;;;;;1.60;1.50;;;8.90;99.90;;;;;;5050789;28;20029;-69
2020/12/13 10:20:58;;;;;;;1.40;1.20;;;8.80;99.90;;;;;;5050637;28;20036;-69
2020/12/13 10:23:25;;;;;;;1.95;1.38;;;8.80;99.90;;;;;;5049995;28;20025;-69
2020/12/13 10:25:50;;;;;;;2.92;1.90;;;8.80;99.90;;;;;;5049443;28;20025;-71
2020/12/13 10:28:16;;;;;;;1.92;1.67;;;8.70;99.90;;;;;;5050528;28;20021;-69
2020/12/13 10:30:41;;;;;;;1.83;1.52;;;8.80;99.90;;;;;;5050742;28;20066;-70
2020/12/13 10:33:07;;;;;;;2.20;1.95;;;8.70;99.90;;;;;;5050187;28;20075;-68
2020/12/13 10:35:38;;;;;;;2.30;2.03;;;8.70;99.90;;;;;;5032604;28;20025;-68
2020/12/13 10:38:03;;;;;;;3.42;2.38;;;8.80;99.90;;;;;;5030854;28;20022;-69
2020/12/13 10:40:29;;;;;;;3.00;2.30;;;8.90;99.90;;;;;;5029688;28;20029;-69
2020/12/13 10:42:54;;;;;;;7.45;6.72;;;9.00;99.90;;;;;;5030024;28;20029;-69
2020/12/13 10:45:20;;;;;;;3.97;2.75;;;8.90;99.90;;;;;;5030504;28;20052;-69
2020/12/13 10:47:46;;;;;;;2.38;2.17;;;8.90;99.90;;;;;;5030648;28;20096;-69
2020/12/13 10:50:11;;;;;;;2.58;2.05;;;8.90;99.90;;;;;;5030636;28;20356;-70
2020/12/13 10:52:37;;;;;;;2.83;2.25;;;8.80;99.90;;;;;;5029798;28;20029;-69
2020/12/13 10:55:03;;;;;;;2.30;1.83;;;8.90;99.90;;;;;;5030324;28;20125;-69
2020/12/13 10:57:28;;;;;;;2.20;2.10;;;9.00;99.90;;;;;;5030242;28;20036;-69
2020/12/13 10:59:54;;;;;;;2.25;1.80;;;8.70;99.90;;;;;;5030308;28;20430;-70
2020/12/13 11:02:19;;;;;;;2.22;2.03;;;8.70;99.90;;;;;;5030645;28;20064;-69
2020/12/13 11:04:45;;;;;;;2.88;1.95;;;8.70;99.90;;;;;;5029162;28;20037;-69
2020/12/13 11:07:11;;;;;;;2.10;1.90;;;8.60;99.90;;;;;;5031446;28;20033;-69
2020/12/13 11:09:36;;;;;;;2.25;2.05;;;8.50;99.90;;;;;;5034133;28;20025;-69
2020/12/13 11:12:02;;;;;;;2.42;2.17;;;8.60;99.90;;;;;;5034071;28;20025;-69
2020/12/13 11:14:27;;;;;;;2.58;1.70;;;8.70;99.90;;;;;;5031337;28;20028;-69
2020/12/13 11:16:53;;;;;;;6.47;3.20;;;8.70;99.90;;;;;;5041827;28;20025;-68
2020/12/13 11:19:19;;;;;;;3.17;2.53;;;8.80;99.90;;;;;;5053628;28;20025;-68
2020/12/13 11:21:45;;;;;;;2.22;2.03;;;8.90;99.90;;;;;;5053871;28;20028;-67
2020/12/13 11:24:11;;;;;;;1.98;1.88;;;9.00;99.90;;;;;;5052888;28;20031;-68
2020/12/13 11:26:37;;;;;;;2.30;2.10;;;8.90;99.90;;;;;;5052028;28;20401;-68
2020/12/13 11:29:02;;;;;;;1.95;1.85;;;8.90;99.90;;;;;;5053057;28;20545;-66
2020/12/13 11:31:28;;;;;;;3.22;2.10;;;8.80;99.90;;;;;;5053678;28;20122;-69
2020/12/13 11:33:54;;;;;;;2.45;2.00;;;8.80;99.90;;;;;;5048248;28;20501;-71
2020/12/13 11:36:19;;;;;;;2.80;2.05;;;8.80;99.90;;;;;;5033492;28;20368;-71
2020/12/13 11:38:45;;;;;;;2.90;2.30;;;8.70;99.90;;;;;;5032093;28;20048;-71
2020/12/13 11:41:11;;;;;;;1.85;1.75;;;8.80;99.90;;;;;;5032305;28;20502;-69
2020/12/13 11:43:36;;;;;;;2.25;2.05;;;8.80;99.90;;;;;;5032444;28;20029;-71
2020/12/13 11:46:02;;;;;;;3.55;2.80;;;8.70;99.90;;;;;;5033310;28;20430;-73
2020/12/13 11:48:28;;;;;;;4.47;3.45;;;8.70;99.90;;;;;;5033263;28;20399;-71
2020/12/13 11:50:53;;;;;;;3.03;2.55;;;8.60;99.90;;;;;;5033158;28;20499;-71
2020/12/13 11:53:19;;;;;;;8.05;3.30;;;8.60;99.90;;;;;;5032534;28;20021;-70
2020/12/13 11:55:46;;;;;;;2.97;2.70;;;8.60;99.90;;;;;;5032900;28;20025;-69
2020/12/13 11:58:12;;;;;;;5.00;2.92;;;8.50;99.90;;;;;;5033314;28;20021;-69
2020/12/13 12:00:37;;;;;;;4.85;2.50;;;9.00;99.90;;;;;;5033139;28;20040;-70
2020/12/13 12:03:03;;;;;;;4.22;2.97;;;9.50;99.90;;;;;;5032448;28;20022;-70
2020/12/13 12:05:29;;;;;;;3.80;2.67;;;9.40;99.90;;;;;;5032966;28;20029;-71
2020/12/13 12:07:55;;;;;;;3.17;2.38;;;9.30;99.90;;;;;;5032923;28;20762;-68
2020/12/13 12:10:21;;;;;;;3.00;2.38;;;9.00;99.90;;;;;;5032715;28;20021;-69
2020/12/13 12:12:48;;;;;;;3.10;2.40;;;8.90;99.90;;;;;;5032140;28;20079;-68
2020/12/13 12:15:14;;;;;;;2.30;2.10;;;8.90;99.90;;;;;;5032588;28;20076;-69
2020/12/13 12:17:39;;;;;;;2.75;2.55;;;8.80;99.90;;;;;;5048518;28;20055;-69
2020/12/13 12:20:05;;;;;;;3.25;2.78;;;8.80;99.90;;;;;;5051876;28;20025;-69
2020/12/13 12:22:31;;;;;;;2.60;2.22;;;8.80;99.90;;;;;;5052124;28;20029;-69
2020/12/13 12:24:57;;;;;;;3.22;2.30;;;8.90;99.90;;;;;;5051217;28;20035;-70
2020/12/13 12:27:23;;;;;;;2.38;2.22;;;8.70;99.90;;;;;;5052104;28;20102;-69
2020/12/13 12:29:48;;;;;;;2.25;1.92;;;8.60;99.90;;;;;;5052501;28;20017;-69
2020/12/13 12:32:14;;;;;;;2.47;2.20;;;8.60;99.90;;;;;;5051143;28;20021;-69
2020/12/13 12:34:40;;;;;;;3.58;2.30;;;8.50;99.90;;;;;;5040258;28;20022;-70
2020/12/13 12:37:06;;;;;;;3.72;1.95;;;8.60;99.90;;;;;;5030960;28;20060;-70
2020/12/13 12:39:31;;;;;;;3.15;2.20;;;8.60;99.90;;;;;;5032435;28;20049;-68
2020/12/13 12:41:57;;;;;;;2.67;2.47;;;8.40;99.90;;;;;;5032310;28;20107;-70
2020/12/13 12:44:23;;;;;;;3.63;2.42;;;8.60;99.90;;;;;;5031856;28;20033;-70
2020/12/13 12:46:48;;;;;;;3.35;2.40;;;8.50;99.90;;;;;;5032410;28;20036;-70
2020/12/13 12:49:14;;;;;;;3.20;2.05;;;8.40;99.90;;;;;;5032129;28;20088;-70
2020/12/13 12:51:40;;;;;;;2.42;2.22;;;8.40;99.90;;;;;;5032487;28;20022;-69
2020/12/13 12:54:05;;;;;;;1.98;1.70;;;8.40;99.90;;;;;;5029809;28;20032;-69
2020/12/13 12:56:31;;;;;;;2.42;2.22;;;8.40;99.90;;;;;;5031925;28;20025;-69
2020/12/13 12:59:07;;;;;;;1.95;1.83;;;8.40;99.90;;;;;;5032090;28;20368;-70
2020/12/13 13:04:08;;;;;;;2.92;2.03;;;8.50;99.90;;;;;;5030480;28;20060;-70
2020/12/13 13:09:11;;;;;;;1.88;1.77;;;8.50;99.90;;;;;;5031339;28;20026;-70
2020/12/13 13:11:43;;;;;;;2.28;2.08;;;8.50;99.90;;;;;;5031870;28;20073;-70
2020/12/13 13:14:10;;;;;;;2.58;2.05;;;8.50;99.90;;;;;;5030650;28;20100;-69
2020/12/13 13:16:37;;;;;;;2.00;1.85;;;8.50;99.90;;;;;;5038395;28;20028;-68